• Join FlightAware (Why Join?)
  • Login
  • US Flag 
12:34AM EDT


 

Airport Tracker/Info


-or-


 

Live Flight TrackerFlight Track Log ✈ DAL2288 ✈ 25-Jul-2013 ✈ KATL - KBOS

Flight Track Log - Related Links

Times and Time Zones

All times are in EDT time to prevent confusion due to time zone crossing. See the DAL2288 flight status page for this flight to view local times or setup timezone preferences in your user account.

Time Position Orientation Groundspeed Altitude Reporting Facility
EDT Latitude Longitude Course Direction KTS MPH feet Rate Location/Type
12:48PM 33.6517 -84.4806 53° Northeast 453 521 2,600  Level Atlanta Center
12:49PM 33.6806 -84.5556 295° West 317 365 4,700 2,700 Climbing Atlanta Center
12:50PM 33.7450 -84.5858 339° North 243 280 8,000 3,060 Climbing Atlanta Center
12:51PM 33.8237 -83.8551 54° Northeast  Level FlightAware Approximate
12:51PM 33.8119 -84.5489 25° Northeast 265 305 10,900  Level Atlanta Center
12:52PM 33.9033 -83.7345 48° Northeast  Level FlightAware Approximate
12:52PM 33.8125 -84.4339 90° East 306 352 12,200  Level Atlanta Center
12:53PM 33.9817 -83.6124 53° Northeast  Level FlightAware Approximate
12:53PM 33.8106 -84.2989 91° East 362 417 14,300  Level Atlanta Center
12:54PM 34.0586 -83.4888 53° Northeast  Level FlightAware Approximate
12:54PM 33.8339 -84.1664 78° East 391 450 16,700  Level Atlanta Center
12:55PM 33.8631 -84.0264 76° East 421 484 18,800 1,980 Climbing Atlanta Center
12:56PM 33.8903 -83.8861 77° East 431 496 20,700 1,800 Climbing Atlanta Center
12:57PM 33.9253 -83.7358 74° East 431 496 22,400 1,560 Climbing Atlanta Center
12:58PM 33.9836 -83.6231 58° Northeast 443 510 23,900 1,500 Climbing Atlanta Center
12:59PM 34.0517 -83.4822 60° Northeast 451 519 25,400 1,320 Climbing Atlanta Center
01:00PM 34.1053 -83.3314 67° East 479 551 26,600 1,200 Climbing Atlanta Center
01:01PM 34.1628 -83.1728 66° East 504 580 27,800 1,440 Climbing Atlanta Center
01:02PM 34.2303 -83.0161 62° Northeast 519 597 29,500 1,800 Climbing Atlanta Center
01:03PM 34.3064 -82.8669 58° Northeast 519 597 31,500 2,040 Climbing Atlanta Center
01:04PM 34.3842 -82.7375 54° Northeast 494 568 33,600 1,620 Climbing Atlanta Center
01:05PM 34.4642 -82.6078 53° Northeast 481 554 34,800 1,320 Climbing Atlanta Center
01:06PM 34.5544 -82.4750 50° Northeast 470 541 36,300 1,140 Climbing Atlanta Center
01:07PM 34.6319 -82.3475 54° Northeast 464 534 37,100 720 Climbing Atlanta Center
01:08PM 34.7094 -82.2194 54° Northeast 464 534 37,800 600 Climbing Atlanta Center
01:09PM 34.7889 -82.0889 53° Northeast 469 540 38,400 420 Climbing Atlanta Center
01:10PM 34.8700 -81.9528 54° Northeast 480 552 38,700 300 Climbing Atlanta Center
01:11PM 34.9533 -81.8189 53° Northeast 488 562 39,000 120 Climbing Atlanta Center
01:12PM 35.0383 -81.6794 53° Northeast 503 579 39,000  Level Atlanta Center
01:13PM 35.1211 -81.5425 54° Northeast 508 585 39,000  Level Atlanta Center
01:14PM 35.2039 -81.4003 55° Northeast 513 590 39,000  Level Atlanta Center
01:15PM 35.2861 -81.2603 54° Northeast 507 583 39,000  Level Atlanta Center
01:16PM 35.3706 -81.1175 54° Northeast 514 592 39,000  Level Atlanta Center
01:17PM 35.4589 -80.9714 53° Northeast 514 592 39,000  Level Atlanta Center
01:18PM 35.5428 -80.8306 54° Northeast 514 592 39,000  Level Atlanta Center
01:20PM 35.6708 -80.6136 54° Northeast 509 586 39,000  Level Washington Center
01:21PM 35.7539 -80.4756 53° Northeast 509 586 39,000  Level Washington Center
01:22PM 35.8344 -80.3369 54° Northeast 498 573 39,000  Level Washington Center
01:23PM 35.9128 -80.2006 55° Northeast 504 580 39,000  Level Washington Center
01:24PM 35.9953 -80.0642 53° Northeast 504 580 39,000  Level Washington Center
01:25PM 36.0775 -79.9275 53° Northeast 492 566 39,000  Level Washington Center
01:26PM 36.1578 -79.7853 55° Northeast 492 566 39,000  Level Washington Center
01:27PM 36.2358 -79.6403 56° Northeast 505 581 39,000  Level Washington Center
01:28PM 36.3067 -79.5150 55° Northeast 500 575 39,000  Level Washington Center
01:29PM 36.3911 -79.3592 56° Northeast 500 575 39,000  Level Washington Center
01:30PM 36.4703 -79.2208 55° Northeast 500 575 39,000  Level Washington Center
01:31PM 36.5517 -79.0825 54° Northeast 500 575 39,000  Level Washington Center
01:32PM 36.6331 -78.9386 55° Northeast 495 570 39,000  Level Washington Center
01:33PM 36.7014 -78.8069 57° Northeast 500 575 39,000  Level Washington Center
01:34PM 36.7781 -78.6647 56° Northeast 500 575 39,000  Level Washington Center
01:35PM 36.8656 -78.5072 55° Northeast 500 575 39,000  Level Washington Center
01:36PM 36.9439 -78.3647 55° Northeast 500 575 39,000  Level Washington Center
01:37PM 37.0203 -78.2192 57° Northeast 500 575 39,000  Level Washington Center
01:38PM 37.0936 -78.0994 52° Northeast 495 570 39,000  Level Washington Center
01:39PM 37.1761 -77.9431 56° Northeast 490 564 39,000  Level Washington Center
01:40PM 37.2433 -77.8119 57° Northeast 490 564 39,000  Level Washington Center
01:41PM 37.3275 -77.6525 56° Northeast 490 564 39,000  Level Washington Center
01:42PM 37.3942 -77.5289 56° Northeast 495 570 39,000  Level Washington Center
01:43PM 37.4803 -77.3661 56° Northeast 494 568 39,000  Level Washington Center
01:44PM 37.5842 -77.2375 44° Northeast 508 585 39,000  Level Washington Center
01:45PM 37.6919 -77.1269 39° Northeast 513 590 39,000  Level Washington Center
01:46PM 37.8019 -77.0136 39° Northeast 508 585 39,000  Level Washington Center
01:47PM 37.9136 -76.9025 38° Northeast 508 585 39,000  Level Washington Center
01:48PM 38.0150 -76.7778 44° Northeast 503 579 39,000  Level Washington Center
01:49PM 38.0997 -76.6631 47° Northeast 495 570 39,000  Level Washington Center
01:50PM 38.1944 -76.5297 48° Northeast 495 570 39,000  Level Washington Center
01:51PM 38.2914 -76.4011 46° Northeast 500 575 39,000  Level Washington Center
01:52PM 38.4047 -76.2886 38° Northeast 500 575 39,000  Level Washington Center
01:53PM 38.5242 -76.1808 35° Northeast 512 589 39,000  Level Washington Center
01:54PM 38.6539 -76.0650 35° Northeast 522 601 39,000  Level Washington Center
01:55PM 38.7689 -75.9539 37° Northeast 517 595 39,000  Level Washington Center
01:56PM 38.8858 -75.8478 35° Northeast 517 595 39,000  Level Washington Center
01:57PM 39.0008 -75.7358 37° Northeast 522 601 39,000  Level Washington Center
01:58PM 39.1197 -75.6292 35° Northeast 522 601 39,000  Level Washington Center
01:59PM 39.2364 -75.5111 38° Northeast 522 601 39,000  Level Washington Center
02:00PM 39.3550 -75.4036 35° Northeast 522 601 39,000  Level Washington Center
02:01PM 39.4756 -75.2986 34° Northeast 522 601 39,000  Level Washington Center
02:02PM 39.5942 -75.1903 35° Northeast 522 601 39,000  Level Washington Center
02:03PM 39.7019 -75.0844 37° Northeast 529 609 39,000 -60 Level Washington Center
02:04PM 39.8389 -74.9700 33° Northeast 534 615 38,900 -780 Descending Washington Center
02:06PM 40.0103 -74.7736 41° Northeast 510 587 37,000 -780 Descending New York Center
02:07PM 40.1175 -74.6169 48° Northeast 520 598 37,000  Level New York Center
02:08PM 40.2200 -74.4814 45° Northeast 520 598 37,000  Level New York Center
02:09PM 40.3300 -74.3594 40° Northeast 525 604 37,000  Level New York Center
02:10PM 40.4183 -74.2603 41° Northeast 520 598 37,000  Level New York Center
02:11PM 40.5481 -74.1031 43° Northeast 520 598 37,000 -60 Level New York Center
02:12PM 40.5942 -73.9331 70° East 493 567 36,900 -1,740 Descending New York Center
02:13PM 40.6403 -73.7711 69° East 475 547 33,600 -3,360 Descending New York Center
02:14PM 40.7272 -73.6300 51° Northeast 487 560 30,200 -2,520 Descending New York Center
02:16PM 40.9422 -73.3250 47° Northeast 494 568 25,000 -1,560 Descending Boston Center
02:17PM 41.0203 -73.2075 49° Northeast 389 448 25,000 -180 Level Boston Center
02:18PM 41.0875 -73.1367 38° Northeast 403 464 24,700 -1,020 Descending Boston Center
02:19PM 41.2189 -73.0942 14° North 378 435 23,000 -900 Descending Boston Center
02:20PM 41.3336 -73.0786 North 416 479 23,000  Level Boston Center
02:21PM 41.4464 -73.0550 North 416 479 23,000  Level Boston Center
02:22PM 41.5322 -72.9697 37° Northeast 416 479 23,000  Level Boston Center
02:23PM 41.5681 -72.8314 71° East 392 451 23,000  Level Boston Center
02:24PM 41.6039 -72.6900 71° East 413 475 23,000  Level Boston Center
02:25PM 41.6397 -72.5567 70° East 386 444 23,000  Level Boston Center
02:26PM 41.6981 -72.4344 57° Northeast 386 444 23,000  Level Boston Center
02:27PM 41.8003 -72.3761 23° Northeast 386 444 23,000  Level Boston Center
02:28PM 41.9086 -72.3397 14° North 417 480 23,000 -60 Level Boston Center
02:29PM 42.0147 -72.3647 350° North 385 443 22,900 -600 Descending Boston Center
02:30PM 42.1211 -72.3869 351° North 390 449 21,800 -1,200 Descending Boston Center
02:31PM 42.2128 -72.3194 29° Northeast 370 426 20,600 -1,260 Descending Boston Center
02:32PM 42.2939 -72.2547 31° Northeast 370 426 19,300 -1,200 Descending Boston Center
02:33PM 42.3875 -72.1872 28° Northeast 357 411 18,200 -1,140 Descending Boston Center
02:34PM 42.4856 -72.1728 North 339 390 17,100 -720 Descending Boston Center
02:35PM 42.5750 -72.1442 13° North 339 390 16,800 -540 Descending Boston Center
02:36PM 42.5956 -72.0200 77° East 273 314 16,100 -1,080 Descending Boston Center
02:37PM 42.5722 -71.9100 106° East 279 321 14,700 -1,500 Descending Boston Center
02:38PM 42.5547 -71.7889 101° East 315 362 13,200 -1,260 Descending Boston Center
02:39PM 42.5500 -71.6933 94° East 315 362 12,200 -1,320 Descending Boston Center
02:40PM 42.5500 -71.5667 90° East 310 357 10,800 -1,440 Descending KA90
02:41PM 42.5500 -71.4500 90° East 299 344 9,400 -1,320 Descending KA90
02:42PM 42.5500 -71.3333 90° East 291 335 8,100 -1,200 Descending KA90
02:43PM 42.5333 -71.2333 103° East 274 315 7,000 -1,020 Descending KA90
02:44PM 42.4833 -71.1500 129° Southeast 252 290 6,100 -480 Descending KA90
02:45PM 42.4500 -71.0833 124° Southeast 222 255 6,100  Level KA90
02:46PM 42.4167 -71.0167 124° Southeast 225 259 6,100  Level KA90
02:47PM 42.3833 -70.9500 124° Southeast 221 254 6,100  Level KA90
02:48PM 42.3333 -70.9167 154° Southeast 231 266 6,100 -420 Level KA90
02:49PM 42.2667 -70.9333 190° South 228 262 5,300 -1,020 Descending KA90
02:50PM 42.2167 -70.9667 206° Southwest 225 259 4,300 -1,140 Descending KA90
02:51PM 42.1833 -71.0333 236° Southwest 232 267 3,100 -840 Descending KA90
02:52PM 42.2167 -71.0833 312° West 212 244 2,600 -600 Descending KA90